sensor_id;sensor_type;location;lat;lon;timestamp;pressure;altitude;pressure_sealevel;temperature
65316;BMP280;51920;53.952;10.292;2023-09-18T00:00:55;100708.00;;;20.07
65316;BMP280;51920;53.952;10.292;2023-09-18T00:03:24;100699.56;;;20.01
65316;BMP280;51920;53.952;10.292;2023-09-18T00:05:52;100692.88;;;20.11
65316;BMP280;51920;53.952;10.292;2023-09-18T00:08:19;100695.25;;;20.00
65316;BMP280;51920;53.952;10.292;2023-09-18T00:10:52;100691.09;;;19.95
65316;BMP280;51920;53.952;10.292;2023-09-18T00:13:20;100688.81;;;19.94
65316;BMP280;51920;53.952;10.292;2023-09-18T00:15:47;100685.84;;;19.88
65316;BMP280;51920;53.952;10.292;2023-09-18T00:18:16;100693.59;;;19.81
65316;BMP280;51920;53.952;10.292;2023-09-18T00:20:43;100691.16;;;19.83
65316;BMP280;51920;53.952;10.292;2023-09-18T00:23:10;100688.69;;;19.76
65316;BMP280;51920;53.952;10.292;2023-09-18T00:25:37;100673.00;;;19.63
65316;BMP280;51920;53.952;10.292;2023-09-18T00:28:04;100682.97;;;19.48
65316;BMP280;51920;53.952;10.292;2023-09-18T00:30:31;100673.00;;;19.41
65316;BMP280;51920;53.952;10.292;2023-09-18T00:32:58;100664.84;;;19.38
65316;BMP280;51920;53.952;10.292;2023-09-18T00:35:25;100652.56;;;19.30
65316;BMP280;51920;53.952;10.292;2023-09-18T00:37:51;100653.38;;;19.17
65316;BMP280;51920;53.952;10.292;2023-09-18T00:40:19;100643.22;;;19.05
65316;BMP280;51920;53.952;10.292;2023-09-18T00:42:46;100651.09;;;19.03
65316;BMP280;51920;53.952;10.292;2023-09-18T00:45:14;100644.97;;;18.99
65316;BMP280;51920;53.952;10.292;2023-09-18T00:47:42;100638.59;;;19.02
65316;BMP280;51920;53.952;10.292;2023-09-18T00:50:11;100633.00;;;19.06
65316;BMP280;51920;53.952;10.292;2023-09-18T00:52:39;100638.59;;;19.02
65316;BMP280;51920;53.952;10.292;2023-09-18T00:55:07;100624.97;;;18.98
65316;BMP280;51920;53.952;10.292;2023-09-18T00:57:34;100620.69;;;18.97
65316;BMP280;51920;53.952;10.292;2023-09-18T01:00:03;100619.59;;;18.95
65316;BMP280;51920;53.952;10.292;2023-09-18T01:02:31;100613.44;;;19.03
65316;BMP280;51920;53.952;10.292;2023-09-18T01:04:58;100610.69;;;19.03
65316;BMP280;51920;53.952;10.292;2023-09-18T01:07:26;100613.91;;;19.02
65316;BMP280;51920;53.952;10.292;2023-09-18T01:09:54;100615.84;;;19.01
65316;BMP280;51920;53.952;10.292;2023-09-18T01:12:34;100618.16;;;19.03
65316;BMP280;51920;53.952;10.292;2023-09-18T01:15:16;100620.16;;;19.02
65316;BMP280;51920;53.952;10.292;2023-09-18T01:17:44;100611.22;;;19.11
65316;BMP280;51920;53.952;10.292;2023-09-18T01:20:12;100610.13;;;19.09
65316;BMP280;51920;53.952;10.292;2023-09-18T01:22:39;100612.41;;;19.10
65316;BMP280;51920;53.952;10.292;2023-09-18T01:25:06;100616.03;;;19.20
65316;BMP280;51920;53.952;10.292;2023-09-18T01:27:34;100606.94;;;19.10
65316;BMP280;51920;53.952;10.292;2023-09-18T01:30:01;100606.06;;;19.13
65316;BMP280;51920;53.952;10.292;2023-09-18T01:32:30;100601.56;;;19.07
65316;BMP280;51920;53.952;10.292;2023-09-18T01:35:00;100607.94;;;19.16
65316;BMP280;51920;53.952;10.292;2023-09-18T01:37:29;100599.59;;;19.07
65316;BMP280;51920;53.952;10.292;2023-09-18T01:39:57;100597.75;;;19.04
65316;BMP280;51920;53.952;10.292;2023-09-18T01:42:27;100589.06;;;19.06
65316;BMP280;51920;53.952;10.292;2023-09-18T01:44:54;100584.53;;;19.12
65316;BMP280;51920;53.952;10.292;2023-09-18T01:47:22;100589.19;;;19.02
65316;BMP280;51920;53.952;10.292;2023-09-18T01:49:54;100582.06;;;18.92
65316;BMP280;51920;53.952;10.292;2023-09-18T01:52:21;100575.69;;;18.95
65316;BMP280;51920;53.952;10.292;2023-09-18T01:54:48;100569.56;;;18.91
65316;BMP280;51920;53.952;10.292;2023-09-18T01:57:15;100563.44;;;18.87
65316;BMP280;51920;53.952;10.292;2023-09-18T01:59:42;100562.00;;;18.82
65316;BMP280;51920;53.952;10.292;2023-09-18T02:02:09;100548.38;;;18.78
65316;BMP280;51920;53.952;10.292;2023-09-18T02:04:38;100538.28;;;18.75
65316;BMP280;51920;53.952;10.292;2023-09-18T02:07:06;100537.97;;;18.73
65316;BMP280;51920;53.952;10.292;2023-09-18T02:09:34;100537.97;;;18.73
65316;BMP280;51920;53.952;10.292;2023-09-18T02:12:02;100536.47;;;18.72
65316;BMP280;51920;53.952;10.292;2023-09-18T02:14:29;100526.81;;;18.68
65316;BMP280;51920;53.952;10.292;2023-09-18T02:16:57;100525.16;;;18.70
65316;BMP280;51920;53.952;10.292;2023-09-18T02:19:24;100528.25;;;18.72
65316;BMP280;51920;53.952;10.292;2023-09-18T02:21:51;100521.00;;;18.66
65316;BMP280;51920;53.952;10.292;2023-09-18T02:24:18;100509.69;;;18.64
65316;BMP280;51920;53.952;10.292;2023-09-18T02:26:45;100506.41;;;18.56
65316;BMP280;51920;53.952;10.292;2023-09-18T02:29:12;100508.50;;;18.52
65316;BMP280;51920;53.952;10.292;2023-09-18T02:31:41;100503.91;;;18.49
65316;BMP280;51920;53.952;10.292;2023-09-18T02:34:08;100502.38;;;18.48
65316;BMP280;51920;53.952;10.292;2023-09-18T02:36:37;100489.44;;;18.48
65316;BMP280;51920;53.952;10.292;2023-09-18T02:39:04;100490.94;;;18.62
65316;BMP280;51920;53.952;10.292;2023-09-18T02:41:31;100479.34;;;18.58
65316;BMP280;51920;53.952;10.292;2023-09-18T02:43:57;100489.44;;;18.48
65316;BMP280;51920;53.952;10.292;2023-09-18T02:46:24;100482.63;;;18.53
65316;BMP280;51920;53.952;10.292;2023-09-18T02:48:51;100475.59;;;18.52
65316;BMP280;51920;53.952;10.292;2023-09-18T02:51:18;100477.38;;;18.46
65316;BMP280;51920;53.952;10.292;2023-09-18T02:53:45;100472.97;;;18.48
65316;BMP280;51920;53.952;10.292;2023-09-18T02:56:12;100465.59;;;18.45
65316;BMP280;51920;53.952;10.292;2023-09-18T02:58:39;100459.13;;;18.52
65316;BMP280;51920;53.952;10.292;2023-09-18T03:01:07;100457.88;;;18.44
65316;BMP280;51920;53.952;10.292;2023-09-18T03:03:34;100448.50;;;18.41
65316;BMP280;51920;53.952;10.292;2023-09-18T03:06:02;100442.72;;;18.39
65316;BMP280;51920;53.952;10.292;2023-09-18T03:08:29;100438.91;;;18.36
65316;BMP280;51920;53.952;10.292;2023-09-18T03:10:58;100433.75;;;18.39
65316;BMP280;51920;53.952;10.292;2023-09-18T03:13:27;100436.78;;;18.41
65316;BMP280;51920;53.952;10.292;2023-09-18T03:15:55;100416.81;;;18.40
65316;BMP280;51920;53.952;10.292;2023-09-18T03:18:24;100421.22;;;18.38
65316;BMP280;51920;53.952;10.292;2023-09-18T03:20:51;100423.63;;;18.35
65316;BMP280;51920;53.952;10.292;2023-09-18T03:23:19;100420.59;;;18.33
65316;BMP280;51920;53.952;10.292;2023-09-18T03:25:45;100420.97;;;18.45
65316;BMP280;51920;53.952;10.292;2023-09-18T03:28:12;100436.78;;;18.41
65316;BMP280;51920;53.952;10.292;2023-09-18T03:30:39;100431.56;;;18.33
65316;BMP280;51920;53.952;10.292;2023-09-18T03:33:06;100430.00;;;18.32
65316;BMP280;51920;53.952;10.292;2023-09-18T03:35:45;100426.28;;;18.26
65316;BMP280;51920;53.952;10.292;2023-09-18T03:38:12;100437.34;;;18.35
65316;BMP280;51920;53.952;10.292;2023-09-18T03:40:39;100437.53;;;18.41
65316;BMP280;51920;53.952;10.292;2023-09-18T03:43:05;100433.19;;;18.44
65316;BMP280;51920;53.952;10.292;2023-09-18T03:45:32;100423.78;;;18.54
65316;BMP280;51920;53.952;10.292;2023-09-18T03:47:59;100422.59;;;18.55
65316;BMP280;51920;53.952;10.292;2023-09-18T03:50:25;100411.06;;;18.60
65316;BMP280;51920;53.952;10.292;2023-09-18T03:52:53;100406.66;;;18.63
65316;BMP280;51920;53.952;10.292;2023-09-18T03:55:20;100396.69;;;18.56
65316;BMP280;51920;53.952;10.292;2023-09-18T03:57:46;100394.03;;;18.65
65316;BMP280;51920;53.952;10.292;2023-09-18T04:00:15;100398.09;;;18.61
65316;BMP280;51920;53.952;10.292;2023-09-18T04:02:42;100381.56;;;18.51
65316;BMP280;51920;53.952;10.292;2023-09-18T04:05:09;100372.00;;;18.56
65316;BMP280;51920;53.952;10.292;2023-09-18T04:07:36;100363.69;;;18.47
65316;BMP280;51920;53.952;10.292;2023-09-18T04:10:03;100354.28;;;18.48
65316;BMP280;51920;53.952;10.292;2023-09-18T04:12:30;100353.81;;;18.49
65316;BMP280;51920;53.952;10.292;2023-09-18T04:14:57;100349.91;;;18.38
65316;BMP280;51920;53.952;10.292;2023-09-18T04:17:23;100350.06;;;18.34
65316;BMP280;51920;53.952;10.292;2023-09-18T04:19:51;100348.06;;;18.34
65316;BMP280;51920;53.952;10.292;2023-09-18T04:22:17;100346.97;;;18.32
65316;BMP280;51920;53.952;10.292;2023-09-18T04:24:44;100342.59;;;18.34
65316;BMP280;51920;53.952;10.292;2023-09-18T04:27:10;100328.34;;;18.27
65316;BMP280;51920;53.952;10.292;2023-09-18T04:29:37;100328.63;;;18.20
65316;BMP280;51920;53.952;10.292;2023-09-18T04:32:05;100323.34;;;18.12
65316;BMP280;51920;53.952;10.292;2023-09-18T04:34:32;100328.97;;;18.09
65316;BMP280;51920;53.952;10.292;2023-09-18T04:37:01;100324.44;;;18.15
65316;BMP280;51920;53.952;10.292;2023-09-18T04:39:28;100320.81;;;18.18
65316;BMP280;51920;53.952;10.292;2023-09-18T04:41:57;100319.94;;;18.21
65316;BMP280;51920;53.952;10.292;2023-09-18T04:44:24;100310.56;;;18.31
65316;BMP280;51920;53.952;10.292;2023-09-18T04:46:51;100312.09;;;18.32
65316;BMP280;51920;53.952;10.292;2023-09-18T04:49:17;100325.19;;;18.28
65316;BMP280;51920;53.952;10.292;2023-09-18T04:51:44;100317.78;;;18.38
65316;BMP280;51920;53.952;10.292;2023-09-18T04:54:11;100317.25;;;18.30
65316;BMP280;51920;53.952;10.292;2023-09-18T04:56:38;100317.78;;;18.38
65316;BMP280;51920;53.952;10.292;2023-09-18T04:59:05;100310.13;;;18.33
65316;BMP280;51920;53.952;10.292;2023-09-18T05:01:32;100309.78;;;18.44
65316;BMP280;51920;53.952;10.292;2023-09-18T05:03:58;100314.50;;;18.30
65316;BMP280;51920;53.952;10.292;2023-09-18T05:06:25;100304.09;;;18.25
65316;BMP280;51920;53.952;10.292;2023-09-18T05:08:52;100300.31;;;18.23
65316;BMP280;51920;53.952;10.292;2023-09-18T05:11:19;100301.06;;;18.23
65316;BMP280;51920;53.952;10.292;2023-09-18T05:13:46;100294.03;;;18.22
65316;BMP280;51920;53.952;10.292;2023-09-18T05:16:13;100287.84;;;18.31
65316;BMP280;51920;53.952;10.292;2023-09-18T05:18:40;100278.69;;;18.25
65316;BMP280;51920;53.952;10.292;2023-09-18T05:21:08;100266.38;;;18.29
65316;BMP280;51920;53.952;10.292;2023-09-18T05:23:36;100263.63;;;18.29
65316;BMP280;51920;53.952;10.292;2023-09-18T05:26:02;100258.91;;;18.30
65316;BMP280;51920;53.952;10.292;2023-09-18T05:28:29;100268.66;;;18.31
65316;BMP280;51920;53.952;10.292;2023-09-18T05:30:56;100264.63;;;18.45
65316;BMP280;51920;53.952;10.292;2023-09-18T05:33:22;100268.16;;;18.45
65316;BMP280;51920;53.952;10.292;2023-09-18T05:35:49;100257.72;;;18.53
65316;BMP280;51920;53.952;10.292;2023-09-18T05:38:17;100243.44;;;18.58
65316;BMP280;51920;53.952;10.292;2023-09-18T05:40:44;100239.91;;;18.57
65316;BMP280;51920;53.952;10.292;2023-09-18T05:43:11;100233.38;;;18.64
65316;BMP280;51920;53.952;10.292;2023-09-18T05:45:38;100233.06;;;18.62
65316;BMP280;51920;53.952;10.292;2023-09-18T05:48:05;100223.00;;;18.68
65316;BMP280;51920;53.952;10.292;2023-09-18T05:50:33;100216.31;;;18.69
65316;BMP280;51920;53.952;10.292;2023-09-18T05:53:01;100207.81;;;18.67
65316;BMP280;51920;53.952;10.292;2023-09-18T05:55:31;100207.19;;;18.63
65316;BMP280;51920;53.952;10.292;2023-09-18T05:57:58;100201.81;;;18.59
65316;BMP280;51920;53.952;10.292;2023-09-18T06:00:26;100199.69;;;18.64
65316;BMP280;51920;53.952;10.292;2023-09-18T06:02:53;100205.81;;;18.68
65316;BMP280;51920;53.952;10.292;2023-09-18T06:05:20;100196.53;;;18.74
65316;BMP280;51920;53.952;10.292;2023-09-18T06:07:50;100198.38;;;18.77
65316;BMP280;51920;53.952;10.292;2023-09-18T06:10:17;100182.59;;;18.91
65316;BMP280;51920;53.952;10.292;2023-09-18T06:12:44;100187.16;;;18.94
65316;BMP280;51920;53.952;10.292;2023-09-18T06:15:11;100183.38;;;19.00
65316;BMP280;51920;53.952;10.292;2023-09-18T06:17:40;100185.66;;;19.02
65316;BMP280;51920;53.952;10.292;2023-09-18T06:20:08;100187.63;;;19.01
65316;BMP280;51920;53.952;10.292;2023-09-18T06:22:40;100177.75;;;19.04
65316;BMP280;51920;53.952;10.292;2023-09-18T06:25:08;100166.78;;;19.13
65316;BMP280;51920;53.952;10.292;2023-09-18T06:27:37;100158.56;;;19.22
65316;BMP280;51920;53.952;10.292;2023-09-18T06:30:04;100164.97;;;19.29
65316;BMP280;51920;53.952;10.292;2023-09-18T06:32:32;100162.84;;;19.42
65316;BMP280;51920;53.952;10.292;2023-09-18T06:34:59;100152.75;;;19.66
65316;BMP280;51920;53.952;10.292;2023-09-18T06:37:26;100150.28;;;19.96
65316;BMP280;51920;53.952;10.292;2023-09-18T06:39:53;100153.53;;;20.37
65316;BMP280;51920;53.952;10.292;2023-09-18T06:42:19;100154.41;;;20.43
65316;BMP280;51920;53.952;10.292;2023-09-18T06:44:54;100145.81;;;20.50
65316;BMP280;51920;53.952;10.292;2023-09-18T06:47:21;100145.63;;;20.30
65316;BMP280;51920;53.952;10.292;2023-09-18T06:49:50;100135.44;;;20.45
65316;BMP280;51920;53.952;10.292;2023-09-18T06:52:18;100149.97;;;20.79
65316;BMP280;51920;53.952;10.292;2023-09-18T06:54:44;100134.72;;;20.93
65316;BMP280;51920;53.952;10.292;2023-09-18T06:57:11;100131.16;;;21.01
65316;BMP280;51920;53.952;10.292;2023-09-18T06:59:38;100126.25;;;21.05
65316;BMP280;51920;53.952;10.292;2023-09-18T07:02:04;100126.31;;;21.11
65316;BMP280;51920;53.952;10.292;2023-09-18T07:04:31;100126.63;;;21.28
65316;BMP280;51920;53.952;10.292;2023-09-18T07:06:57;100117.53;;;21.22
65316;BMP280;51920;53.952;10.292;2023-09-18T07:09:24;100116.69;;;21.30
65316;BMP280;51920;53.952;10.292;2023-09-18T07:11:52;100119.03;;;21.23
65316;BMP280;51920;53.952;10.292;2023-09-18T07:14:18;100109.69;;;21.44
65316;BMP280;51920;53.952;10.292;2023-09-18T07:16:45;100108.16;;;21.43
65316;BMP280;51920;53.952;10.292;2023-09-18T07:19:12;100102.66;;;21.43
65316;BMP280;51920;53.952;10.292;2023-09-18T07:21:43;100096.38;;;21.43
65316;BMP280;51920;53.952;10.292;2023-09-18T07:24:09;100094.75;;;21.51
65316;BMP280;51920;53.952;10.292;2023-09-18T07:26:36;100093.91;;;21.60
65316;BMP280;51920;53.952;10.292;2023-09-18T07:29:03;100091.63;;;21.58
65316;BMP280;51920;53.952;10.292;2023-09-18T07:31:30;100093.78;;;21.69
65316;BMP280;51920;53.952;10.292;2023-09-18T07:33:56;100085.94;;;21.76
65316;BMP280;51920;53.952;10.292;2023-09-18T07:36:23;100073.19;;;21.79
65316;BMP280;51920;53.952;10.292;2023-09-18T07:38:50;100074.78;;;21.86
65316;BMP280;51920;53.952;10.292;2023-09-18T07:41:17;100064.56;;;22.07
65316;BMP280;51920;53.952;10.292;2023-09-18T07:43:43;100062.84;;;22.24
65316;BMP280;51920;53.952;10.292;2023-09-18T07:46:10;100044.63;;;22.32
65316;BMP280;51920;53.952;10.292;2023-09-18T07:48:36;100043.22;;;22.42
65316;BMP280;51920;53.952;10.292;2023-09-18T07:51:04;100022.69;;;22.43
65316;BMP280;51920;53.952;10.292;2023-09-18T07:53:30;100033.09;;;22.54
65316;BMP280;51920;53.952;10.292;2023-09-18T07:55:58;100031.78;;;22.70
65316;BMP280;51920;53.952;10.292;2023-09-18T07:58:26;100031.31;;;22.98
65316;BMP280;51920;53.952;10.292;2023-09-18T08:00:57;100029.41;;;23.09
65316;BMP280;51920;53.952;10.292;2023-09-18T08:03:24;100032.13;;;23.04
65316;BMP280;51920;53.952;10.292;2023-09-18T08:05:52;100024.06;;;23.00
65316;BMP280;51920;53.952;10.292;2023-09-18T08:08:20;100029.72;;;23.17
65316;BMP280;51920;53.952;10.292;2023-09-18T08:10:47;100032.53;;;23.23
65316;BMP280;51920;53.952;10.292;2023-09-18T08:13:14;100024.72;;;23.21
65316;BMP280;51920;53.952;10.292;2023-09-18T08:15:41;100017.25;;;23.27
65316;BMP280;51920;53.952;10.292;2023-09-18T08:18:08;100026.66;;;23.41
65316;BMP280;51920;53.952;10.292;2023-09-18T08:20:35;100024.66;;;23.41
65316;BMP280;51920;53.952;10.292;2023-09-18T08:23:03;100019.38;;;23.43
65316;BMP280;51920;53.952;10.292;2023-09-18T08:25:32;100016.50;;;23.27
65316;BMP280;51920;53.952;10.292;2023-09-18T08:27:59;100009.22;;;23.29
65316;BMP280;51920;53.952;10.292;2023-09-18T08:30:26;100015.03;;;23.31
65316;BMP280;51920;53.952;10.292;2023-09-18T08:32:52;100025.34;;;23.36
65316;BMP280;51920;53.952;10.292;2023-09-18T08:35:19;100017.34;;;23.38
65316;BMP280;51920;53.952;10.292;2023-09-18T08:37:47;100016.59;;;23.43
65316;BMP280;51920;53.952;10.292;2023-09-18T08:40:13;100012.38;;;23.42
65316;BMP280;51920;53.952;10.292;2023-09-18T08:42:45;100015.69;;;23.52
65316;BMP280;51920;53.952;10.292;2023-09-18T08:45:27;100015.91;;;23.49
65316;BMP280;51920;53.952;10.292;2023-09-18T08:47:58;100008.59;;;23.46
65316;BMP280;51920;53.952;10.292;2023-09-18T08:50:25;99996.53;;;23.43
65316;BMP280;51920;53.952;10.292;2023-09-18T08:52:52;99994.91;;;23.31
65316;BMP280;51920;53.952;10.292;2023-09-18T08:55:20;100004.75;;;23.32
65316;BMP280;51920;53.952;10.292;2023-09-18T08:57:47;99989.63;;;23.27
65316;BMP280;51920;53.952;10.292;2023-09-18T09:00:14;99991.94;;;23.34
65316;BMP280;51920;53.952;10.292;2023-09-18T09:02:44;99989.41;;;23.36
65316;BMP280;51920;53.952;10.292;2023-09-18T09:05:11;99997.25;;;23.43
65316;BMP280;51920;53.952;10.292;2023-09-18T09:07:38;99993.63;;;23.26
65316;BMP280;51920;53.952;10.292;2023-09-18T09:10:05;100011.50;;;23.31
65316;BMP280;51920;53.952;10.292;2023-09-18T09:12:52;100030.31;;;23.27
65316;BMP280;51920;53.952;10.292;2023-09-18T09:15:24;100020.94;;;23.18
65316;BMP280;51920;53.952;10.292;2023-09-18T09:18:01;100017.09;;;23.10
65316;BMP280;51920;53.952;10.292;2023-09-18T09:20:29;100011.13;;;23.17
65316;BMP280;51920;53.952;10.292;2023-09-18T09:23:03;100011.66;;;23.22
65316;BMP280;51920;53.952;10.292;2023-09-18T09:25:31;100009.41;;;23.20
65316;BMP280;51920;53.952;10.292;2023-09-18T09:27:59;100005.41;;;23.21
65316;BMP280;51920;53.952;10.292;2023-09-18T09:30:28;99991.59;;;23.21
65316;BMP280;51920;53.952;10.292;2023-09-18T09:32:56;99980.00;;;23.17
65316;BMP280;51920;53.952;10.292;2023-09-18T09:35:37;99978.56;;;23.64
65316;BMP280;51920;53.952;10.292;2023-09-18T09:38:11;99977.97;;;23.86
65316;BMP280;51920;53.952;10.292;2023-09-18T09:40:40;99985.78;;;23.99
65316;BMP280;51920;53.952;10.292;2023-09-18T09:43:09;99993.56;;;23.95
65316;BMP280;51920;53.952;10.292;2023-09-18T09:45:37;99988.75;;;23.84
65316;BMP280;51920;53.952;10.292;2023-09-18T09:48:04;99981.44;;;23.81
65316;BMP280;51920;53.952;10.292;2023-09-18T09:50:44;99966.06;;;23.75
65316;BMP280;51920;53.952;10.292;2023-09-18T09:53:14;99968.59;;;24.44
65316;BMP280;51920;53.952;10.292;2023-09-18T09:55:41;99974.69;;;25.04
65316;BMP280;51920;53.952;10.292;2023-09-18T09:58:09;99976.94;;;25.22
65316;BMP280;51920;53.952;10.292;2023-09-18T10:00:46;99973.94;;;24.92
65316;BMP280;51920;53.952;10.292;2023-09-18T10:03:19;99988.81;;;25.06
65316;BMP280;51920;53.952;10.292;2023-09-18T10:05:51;99981.66;;;25.61
65316;BMP280;51920;53.952;10.292;2023-09-18T10:08:25;99972.34;;;25.58
65316;BMP280;51920;53.952;10.292;2023-09-18T10:10:55;99981.47;;;25.25
65316;BMP280;51920;53.952;10.292;2023-09-18T10:15:50;99977.41;;;24.42
65316;BMP280;51920;53.952;10.292;2023-09-18T10:18:22;99986.91;;;24.35
65316;BMP280;51920;53.952;10.292;2023-09-18T10:20:55;99976.00;;;24.04
65316;BMP280;51920;53.952;10.292;2023-09-18T10:23:39;99975.97;;;23.98
65316;BMP280;51920;53.952;10.292;2023-09-18T10:26:13;99962.88;;;23.87
65316;BMP280;51920;53.952;10.292;2023-09-18T10:28:43;99963.81;;;23.73
65316;BMP280;51920;53.952;10.292;2023-09-18T10:31:10;99961.75;;;23.68
65316;BMP280;51920;53.952;10.292;2023-09-18T10:33:39;99944.31;;;23.56
65316;BMP280;51920;53.952;10.292;2023-09-18T10:36:06;99962.72;;;23.65
65316;BMP280;51920;53.952;10.292;2023-09-18T10:38:34;99976.78;;;23.61
65316;BMP280;51920;53.952;10.292;2023-09-18T10:41:04;99976.22;;;23.52
65316;BMP280;51920;53.952;10.292;2023-09-18T10:43:31;99966.91;;;23.49
65316;BMP280;51920;53.952;10.292;2023-09-18T10:45:58;99948.00;;;23.42
65316;BMP280;51920;53.952;10.292;2023-09-18T10:48:25;99942.06;;;23.55
65316;BMP280;51920;53.952;10.292;2023-09-18T10:50:53;99956.16;;;23.57
65316;BMP280;51920;53.952;10.292;2023-09-18T10:53:19;99955.03;;;23.80
65316;BMP280;51920;53.952;10.292;2023-09-18T10:55:48;99957.69;;;24.06
65316;BMP280;51920;53.952;10.292;2023-09-18T10:58:23;99970.75;;;24.11
65316;BMP280;51920;53.952;10.292;2023-09-18T11:00:51;99969.81;;;24.26
65316;BMP280;51920;53.952;10.292;2023-09-18T11:03:18;99971.53;;;24.23
65316;BMP280;51920;53.952;10.292;2023-09-18T11:05:46;99970.31;;;24.24
65316;BMP280;51920;53.952;10.292;2023-09-18T11:08:33;99970.53;;;24.15
65316;BMP280;51920;53.952;10.292;2023-09-18T11:11:08;99966.25;;;24.20
65316;BMP280;51920;53.952;10.292;2023-09-18T11:13:42;99973.09;;;24.30
65316;BMP280;51920;53.952;10.292;2023-09-18T11:18:54;99973.06;;;24.13
65316;BMP280;51920;53.952;10.292;2023-09-18T11:21:25;99971.59;;;24.34
65316;BMP280;51920;53.952;10.292;2023-09-18T11:24:03;99979.16;;;24.51
65316;BMP280;51920;53.952;10.292;2023-09-18T11:26:34;99982.22;;;24.53
65316;BMP280;51920;53.952;10.292;2023-09-18T11:29:03;99979.66;;;24.44
65316;BMP280;51920;53.952;10.292;2023-09-18T11:31:52;99980.97;;;24.59
65316;BMP280;51920;53.952;10.292;2023-09-18T11:37:28;99976.44;;;25.18
65316;BMP280;51920;53.952;10.292;2023-09-18T11:39:55;99987.53;;;25.07
65316;BMP280;51920;53.952;10.292;2023-09-18T11:42:24;99981.00;;;24.82
65316;BMP280;51920;53.952;10.292;2023-09-18T11:44:56;99984.97;;;24.64
65316;BMP280;51920;53.952;10.292;2023-09-18T11:47:33;99964.81;;;24.47
65316;BMP280;51920;53.952;10.292;2023-09-18T11:50:18;99953.47;;;24.33
65316;BMP280;51920;53.952;10.292;2023-09-18T11:52:57;99976.91;;;24.38
65316;BMP280;51920;53.952;10.292;2023-09-18T11:55:37;99969.81;;;24.31
65316;BMP280;51920;53.952;10.292;2023-09-18T11:58:08;99975.41;;;24.48
65316;BMP280;51920;53.952;10.292;2023-09-18T12:00:36;99955.00;;;24.40
65316;BMP280;51920;53.952;10.292;2023-09-18T12:03:23;99987.75;;;24.53
65316;BMP280;51920;53.952;10.292;2023-09-18T12:06:01;99975.41;;;24.48
65316;BMP280;51920;53.952;10.292;2023-09-18T12:08:29;99987.69;;;24.36
65316;BMP280;51920;53.952;10.292;2023-09-18T12:11:05;99986.16;;;24.29
65316;BMP280;51920;53.952;10.292;2023-09-18T12:13:40;99975.56;;;24.22
65316;BMP280;51920;53.952;10.292;2023-09-18T12:16:13;99982.34;;;24.21
65316;BMP280;51920;53.952;10.292;2023-09-18T12:18:49;99979.84;;;24.23
65316;BMP280;51920;53.952;10.292;2023-09-18T12:21:18;99971.03;;;24.19
65316;BMP280;51920;53.952;10.292;2023-09-18T12:23:46;99978.59;;;24.13
65316;BMP280;51920;53.952;10.292;2023-09-18T12:26:18;99960.41;;;24.01
65316;BMP280;51920;53.952;10.292;2023-09-18T12:28:48;99973.13;;;23.81
65316;BMP280;51920;53.952;10.292;2023-09-18T12:31:22;99992.59;;;24.04
65316;BMP280;51920;53.952;10.292;2023-09-18T12:35:16;99973.88;;;23.76
65316;BMP280;51920;53.952;10.292;2023-09-18T12:38:16;99991.00;;;23.86
65316;BMP280;51920;53.952;10.292;2023-09-18T12:40:56;99984.44;;;23.78
65316;BMP280;51920;53.952;10.292;2023-09-18T12:43:44;99952.47;;;23.65
65316;BMP280;51920;53.952;10.292;2023-09-18T12:46:12;99956.28;;;23.79
65316;BMP280;51920;53.952;10.292;2023-09-18T12:48:44;99968.34;;;23.76
65316;BMP280;51920;53.952;10.292;2023-09-18T12:51:29;99965.88;;;23.84
65316;BMP280;51920;53.952;10.292;2023-09-18T12:54:44;99949.47;;;23.75
65316;BMP280;51920;53.952;10.292;2023-09-18T12:57:21;99961.66;;;24.00
65316;BMP280;51920;53.952;10.292;2023-09-18T12:59:54;99960.44;;;24.06
65316;BMP280;51920;53.952;10.292;2023-09-18T13:02:38;99957.69;;;24.12
65316;BMP280;51920;53.952;10.292;2023-09-18T13:05:40;99948.91;;;24.13
65316;BMP280;51920;53.952;10.292;2023-09-18T13:08:11;99956.00;;;24.37
65316;BMP280;51920;53.952;10.292;2023-09-18T13:10:54;99955.97;;;24.20
65316;BMP280;51920;53.952;10.292;2023-09-18T13:13:24;99952.66;;;24.16
65316;BMP280;51920;53.952;10.292;2023-09-18T13:15:59;99941.88;;;24.29
65316;BMP280;51920;53.952;10.292;2023-09-18T13:18:36;99944.66;;;24.41
65316;BMP280;51920;53.952;10.292;2023-09-18T13:21:38;99945.94;;;24.51
65316;BMP280;51920;53.952;10.292;2023-09-18T13:24:24;99974.19;;;24.77
65316;BMP280;51920;53.952;10.292;2023-09-18T13:26:59;99983.50;;;24.80
65316;BMP280;51920;53.952;10.292;2023-09-18T13:29:29;99974.44;;;24.68
65316;BMP280;51920;53.952;10.292;2023-09-18T13:32:11;99963.84;;;24.72
65316;BMP280;51920;53.952;10.292;2023-09-18T13:34:41;99963.38;;;24.85
65316;BMP280;51920;53.952;10.292;2023-09-18T13:37:08;99977.69;;;24.83
65316;BMP280;51920;53.952;10.292;2023-09-18T13:40:07;99967.63;;;24.75
65316;BMP280;51920;53.952;10.292;2023-09-18T13:42:42;99939.66;;;24.50
65316;BMP280;51920;53.952;10.292;2023-09-18T13:45:15;99939.63;;;24.39
65316;BMP280;51920;53.952;10.292;2023-09-18T13:47:47;99971.13;;;24.42
65316;BMP280;51920;53.952;10.292;2023-09-18T13:50:16;99973.84;;;24.36
65316;BMP280;51920;53.952;10.292;2023-09-18T13:52:51;99948.91;;;24.19
65316;BMP280;51920;53.952;10.292;2023-09-18T13:55:17;99942.13;;;24.20
65316;BMP280;51920;53.952;10.292;2023-09-18T13:57:48;99953.69;;;24.19
65316;BMP280;51920;53.952;10.292;2023-09-18T14:00:16;99969.97;;;24.11
65316;BMP280;51920;53.952;10.292;2023-09-18T14:02:43;99956.09;;;24.00
65316;BMP280;51920;53.952;10.292;2023-09-18T14:05:10;99969.94;;;24.00
65316;BMP280;51920;53.952;10.292;2023-09-18T14:07:46;99942.50;;;23.90
65316;BMP280;51920;53.952;10.292;2023-09-18T14:10:32;99956.09;;;23.94
65316;BMP280;51920;53.952;10.292;2023-09-18T14:13:24;99965.69;;;24.04